METAR / TAF

Die METAR- und TAF-Liste ist aus technischen Gründen (Verfügbarkeit, Update-Zyklen) nicht für ein Meteo-Briefing gedacht. Benutzen Sie stattdessen skybriefing der Skyguide  oder das TAMSI (MeteoSchweiz-eigene Meteo Selfbriefing-Plattform für Firmen aus der Aviatik; Anfragen über das

Kontaktformular

METAR Schweiz

METAR     LSZH 180350Z VRB03KT 9999 MIFG NSC 07/06 Q1018 TEMPO 4000
               BCFG=
METAR     LSZH 180420Z 32002KT 9999 MIFG NSC 06/06 Q1018 TEMPO 4000
               BCFG=
METAR     LSGG 180350Z VRB01KT CAVOK 08/06 Q1017 NOSIG=
METAR     LSGG 180420Z VRB01KT CAVOK 07/07 Q1017 NOSIG=
METAR     LFSB 180430Z VRB02KT 4000 1900SW R33/0450D BR FEW001
               SCT006 BKN250 05/04 Q1018 TEMPO 0700 BCFG=
METAR     LSZB 180350Z AUTO VRB01KT 3700 R14/0750U BR NCD 05/05
               Q1017=
METAR     LSZB 180420Z 14002KT 5000 BR NSC 04/04 Q1017 NOSIG=
METAR     LSZA 180350Z AUTO 01003KT 2600 BR NCD 11/11 Q1018=
METAR     LSZA 180420Z 02003KT 3500 BR NSC 11/10 Q1018 NOSIG=
METAR     LSZG 180350Z AUTO 00000KT 0100 FG VV000 05/05 Q1018=
METAR     LSZG 180420Z AUTO 00000KT 0100 FG VV000 04/04 Q1018=
METAR     LSZR 180350Z 12001KT CAVOK 08/08 Q1018 NOSIG RMK A=
METAR     LSZR 180420Z VRB01KT CAVOK 09/08 Q1018 NOSIG RMK A=
METAR     LSGS 180350Z AUTO 00000KT CAVOK 08/06 Q1018=
METAR     LSGS 180420Z AUTO VRB01KT 9000 NCD 08/05 Q1018=
METAR     LSGC 180350Z AUTO VRB01KT CAVOK 07/04 Q1018=
METAR     LSGC 180420Z AUTO VRB03KT CAVOK 09/04 Q1018=
METAR     LSZC 180350Z AUTO 25003KT 8000 NCD 08/07 Q1018=
METAR     LSZC 180420Z AUTO 25002KT 9000 NCD 08/08 Q1018=
METAR RRA LSZL 180350Z AUTO 07001KT 0800NDV R08/P2000D R26/P2000N
               -SHRA FG FEW043 11/11 Q1018 RMK=
METAR     LSZL 180420Z AUTO 00000KT 4300NDV BR FEW041 10/10 Q1018
               RMK=
METAR     LSZS 180350Z AUTO 18001KT 9000 NCD M01/M01 Q1022 REFZDZ=
METAR     LSZS 180420Z AUTO 21001KT CAVOK M00/M00 Q1022 REFZDZ=
METAR RRA LSMA 180350Z AUTO VRB01KT 4800NDV NCD 07/06 Q1018 RMK=
METAR     LSMA 180420Z AUTO 19003KT 5000NDV BR NCD 07/06 Q1018 RMK=
METAR RRA LSMD 180350Z AUTO VRB02KT 2100NDV NCD 08/07 Q1018 RMK=
METAR     LSMD 180420Z AUTO 00000KT 0350NDV R11/1000VP2000U
               R29/P2000N NCD 08/07 Q1018 RMK=
METAR RRA LSME 180350Z AUTO 00000KT 4100NDV -SHRA BR NCD 07/06
               Q1018 RMK=
METAR     LSME 180420Z AUTO 00000KT 3600NDV BCFG NCD 06/05 Q1018
               RMK=
METAR     LSMM 180350Z AUTO 00000KT 9000NDV NCD 04/03 Q1018 RMK=
METAR     LSMM 180420Z AUTO VRB01KT 7000NDV NCD 05/05 Q1018 RMK=
METAR     LSMP 180350Z 00000KT 5000 NSC 05/05 Q1018 RMK WHT=
METAR     LSMP 180420Z 00000KT 5000 NSC 05/04 Q1018 RMK WHT=
METAR     LSMS 180350Z AUTO 00000KT CAVOK 08/06 Q1018=
METAR     LSMS 180420Z AUTO VRB01KT 9000 NCD 08/05 Q1018=
Aktualisiert am Donnerstag, 18. Oktober 2018, 06:42 Uhr

TAF Schweiz

TAF CCA LSZH 180242Z 1803/1909 VRB03KT 9999 MIFG NSC TX18/1814Z
             TN05/1804Z TN05/1904Z PROB40 1803/1808 3000 BCFG
             SCT003 PROB30 1804/1807 1200 BKN003 BECMG 1807/1809
             CAVOK BECMG 1808/1811 05009KT BECMG 1821/1824 02004KT
             7000 SCT003 BECMG 1901/1903 4000 BR BKN008 PROB30
             1823/1903 0800 PRFG BKN004 BECMG 1907/1909 6000
             BKN010=
TAF     LSZH 180225Z 1803/1909 VRB03KT 9999 MIFG NSC TX18/1814Z
             TN04/1804Z TN05/1904Z PROB40 1803/1808 3000 BCFG
             SCT003 PROB30 1804/1807 1200 BKN003 BECMG 1807/1809
             CAVOK BECMG 1808/1811 05009KT BECMG 1821/1824 02004KT
             7000 SCT003 BECMG 1901/1903 4000 BR BKN008 PROB30
             1823/1903 0800 PRFG BKN004 BECMG 1907/1909 6000
             BKN010=
TAF     LSGG 180225Z 1803/1909 VRB03KT CAVOK TX19/1815Z TN09/1806Z
             TN08/1906Z BECMG 1809/1811 05008KT BECMG 1819/1821
             VRB03KT TEMPO 1903/1907 BKN020 BECMG 1907/1909
             05007KT=
TAF AAA LFSB 180235Z 1802/1824 VRB02KT CAVOK TEMPO 1802/1807 4000
             BR PROB30 TEMPO 1802/1807 0900 BCFG BECMG 1809/1812
             36010KT=
TAF     LFSB 172300Z 1800/1824 VRB02KT CAVOK TEMPO 1800/1803 4000
             BR PROB30 TEMPO 1800/1807 2000 MIFG BECMG 1809/1812
             36010KT=
TAF     LSGS 180225Z 1803/1812 VRB03KT CAVOK BECMG 1810/1812
             25010KT=
TAF CCA LSZA 180240Z 1803/1812 VRB03KT 2300 BR NSC PROB30 1803/1806
             1200 BCFG SCT002 BECMG 1803/1806 6000 BECMG 1809/1812
             CAVOK=
TAF     LSZA 180225Z 1803/1812 VRB03KT 2300 BR NSC BECMG 1803/1806
             6000 BECMG 1809/1812 CAVOK=
TAF AAA LSZB 180340Z 1803/1812 VRB03KT 2400 BCFG NSC BECMG
             1804/1807 3500 BR BECMG 1807/1809 CAVOK=
TAF     LSZB 180225Z 1803/1812 VRB03KT 5000 NSC TEMPO 1803/1807
             3500 BR BECMG 1806/1808 CAVOK=
TAF     LSZL 180225Z 1803/1812 VRB02KT 4000 BR SCT035 PROB40
             1803/1807 1500 BCFG BECMG 1807/1810 CAVOK=
TAF     LSZR 180225Z 1803/1812 VRB03KT 8000 NSC BECMG 1803/1806
             CAVOK=
TAF AAG LSMA 180348Z 1803/1823 VRB03KT 5000 NSC TEMPO 1803/1806
             4000 MIFG PROB40 1801/1806 1200 PRFG PROB30 1804/1806
             0600 FG VV002 BECMG 1810/1814 CAVOK BECMG 1820/1823
             4500 BR=
TAF AAE LSMA 180344Z 1803/1823 VRB03KT 5000 NSC TEMPO 1803/1806
             4000 MIFG PROB40 1801/1806 1200 PRFG PROB30 1804/1806
             0600 FG VV002 BECMG 1810/1814 CAVOK BECMG 1820/1823
             4500 BR=
TAF AAB LSMA 172019Z 1720/1823 VRB03KT 6000 NSC BECMG 1722/1802
             4500 MIFG PROB40 1801/1806 1200 PRFG PROB30 1804/1806
             0600 FG VV002 BECMG 1810/1814 CAVOK BECMG 1820/1823
             4500 BR=
TAF     LSMA 171625Z 1717/1823 VRB03KT CAVOK BECMG 1722/1802 4500
             MIFG NSC PROB40 1801/1806 1200 PRFG PROB30 1804/1806
             0600 FG VV002 BECMG 1810/1814 CAVOK BECMG 1820/1823
             4500 BR=
TAF AAD LSMD 180342Z 1803/1823 09004KT CAVOK TEMPO 1803/1807 5000
             MIFG NSC PROB40 1802/1805 1200 PRFG PROB40 1802/1806
             BKN008 BECMG 1807/1810 SCT012 BECMG 1810/1814 CAVOK
             BECMG 1821/1823 4500 BR=
TAF     LSMD 171625Z 1717/1823 09004KT CAVOK BECMG 1723/1803 4500
             MIFG NSC PROB40 1802/1805 1200 PRFG PROB40 1802/1806
             BKN008 BECMG 1807/1810 SCT012 BECMG 1810/1814 CAVOK
             BECMG 1821/1823 4500 BR=
TAF AAF LSME 180345Z 1803/1823 VRB03KT 6000 NSC BECMG 1723/1803
             4500 MIFG PROB40 1802/1805 1200 PRFG PROB30 1803/1806
             0600 FG VV003 PROB40 1802/1806 BKN008 BECMG 1810/1814
             CAVOK BECMG 1820/1823 4500 BR=
TAF AAA LSME 172018Z 1720/1823 VRB03KT 6000 NSC BECMG 1723/1803
             4500 MIFG PROB40 1802/1805 1200 PRFG PROB30 1803/1806
             0900 FG VV003 PROB40 1802/1806 BKN008 BECMG 1810/1814
             CAVOK BECMG 1820/1823 4500 BR=
TAF     LSME 171625Z 1717/1823 25002KT CAVOK BECMG 1723/1803 4500
             MIFG NSC PROB40 1802/1805 1200 PRFG PROB30 1803/1806
             0900 FG VV003 PROB40 1802/1806 BKN008 BECMG 1807/1810
             SCT012 BECMG 1810/1814 CAVOK BECMG 1820/1823 4500 BR=
TAF AAC LSMM 180140Z 1801/1823 08008KT CAVOK TEMPO 1802/1806 4500
             MIFG NSC PROB40 1801/1806 1200 PRFG PROB30 1804/1806
             0600 FG VV002 BECMG 1810/1814 CAVOK BECMG 1820/1823
             4500 BR=
TAF     LSMM 171625Z 1717/1823 08008KT CAVOK BECMG 1721/1801 4500
             MIFG NSC PROB40 1801/1806 1200 PRFG PROB30 1804/1806
             0600 FG VV002 BECMG 1810/1814 CAVOK BECMG 1820/1823
             4500 BR=
TAF     LSMP 171625Z 1717/1823 VRB03KT CAVOK TEMPO 1803/1806 5000
             BR NSC BECMG 1810/1812 04010KT BECMG 1819/1821
             VRB03KT=
Aktualisiert am Donnerstag, 18. Oktober 2018, 06:03 Uhr